Terminal Aerodrome Forecast
Issued by NWS Quad Cities IA IL

Home | Current Version | Previous Version | Text Only | Print | Product List | Glossary On
Versions: 1 2 3 4 5 6 7 8 9 10 11 12 13 14 15 16 17 18 19 20 21 22 23 24 25 26 27 28 29 30 31 32 33 34
471
FTUS43 KDVN 210128 AAA
TAFMLI
TAF AMD
KMLI 210128Z 2101/2124 09005KT 1SM BR OVC003
      TEMPO 2101/2103 1/2SM FG OVC002
     FM210300 12006KT 1/2SM -DZ FG OVC003
     FM211000 15007KT 2SM BR OVC004
     FM211300 17008KT 4SM BR OVC006
     FM211800 22011KT P6SM BKN020=

USA.gov is the U.S. government's official web portal to all federal, state and local government web resources and services.